createdAt,value
2019-02-12T00:00:17.381Z,62.92
2019-02-12T00:02:45.647Z,63.74
2019-02-12T00:05:12.660Z,64.88
2019-02-12T00:07:39.112Z,63.94
2019-02-12T00:10:05.645Z,63.86
2019-02-12T00:12:32.248Z,64.18
2019-02-12T00:14:58.866Z,63.65
2019-02-12T00:17:25.238Z,63.97
2019-02-12T00:19:51.572Z,64.48
2019-02-12T00:22:18.127Z,64.62
2019-02-12T00:24:44.728Z,64.61
2019-02-12T00:27:11.302Z,63.91
2019-02-12T00:29:37.634Z,64.48
2019-02-12T00:32:03.980Z,65.14
2019-02-12T00:34:30.308Z,64.86
2019-02-12T00:36:56.916Z,64.70
2019-02-12T00:39:23.233Z,64.27
2019-02-12T00:41:49.596Z,65.37
2019-02-12T00:44:16.915Z,66.39
2019-02-12T00:46:43.288Z,65.99
2019-02-12T00:49:09.835Z,66.82
2019-02-12T00:51:36.160Z,67.15
2019-02-12T00:54:02.764Z,67.77
2019-02-12T00:56:29.359Z,67.29
2019-02-12T00:58:55.686Z,67.56
2019-02-12T01:01:22.039Z,67.08
2019-02-12T01:03:48.361Z,67.39
2019-02-12T01:06:14.680Z,68.82
2019-02-12T01:08:42.011Z,69.09
2019-02-12T01:11:08.560Z,69.54
2019-02-12T01:13:36.166Z,69.56
2019-02-12T01:16:02.566Z,69.71
2019-02-12T01:18:29.180Z,68.83
2019-02-12T01:20:55.753Z,68.61
2019-02-12T01:23:22.308Z,68.46
2019-02-12T01:25:48.654Z,67.44
2019-02-12T01:28:14.999Z,67.93
2019-02-12T01:30:41.358Z,67.95
2019-02-12T01:33:07.651Z,67.36
2019-02-12T01:35:34.270Z,67.33
2019-02-12T01:38:00.563Z,66.43
2019-02-12T01:40:26.930Z,66.97
2019-02-12T01:42:53.257Z,66.71
2019-02-12T01:45:19.607Z,66.43
2019-02-12T01:47:46.264Z,66.28
2019-02-12T01:50:12.734Z,65.92
2019-02-12T01:52:39.064Z,66.04
2019-02-12T01:55:05.458Z,66.52
2019-02-12T01:57:32.059Z,66.53
2019-02-12T01:59:58.353Z,66.28
2019-02-12T02:02:24.705Z,67.41
2019-02-12T02:04:51.255Z,69.14
2019-02-12T02:07:17.841Z,68.79
2019-02-12T02:09:44.162Z,68.99
2019-02-12T02:12:10.618Z,69.54
2019-02-12T02:14:37.224Z,69.91
2019-02-12T02:17:03.523Z,69.12
2019-02-12T02:19:29.862Z,68.53
2019-02-12T02:21:56.478Z,68.25
2019-02-12T02:24:22.819Z,67.65
2019-02-12T02:26:49.431Z,66.96
2019-02-12T02:29:16.082Z,67.23
2019-02-12T02:31:42.677Z,67.50
2019-02-12T02:34:09.032Z,67.63
2019-02-12T02:36:35.358Z,67.74
2019-02-12T02:39:01.793Z,67.81
2019-02-12T02:41:30.043Z,68.00
2019-02-12T02:43:56.357Z,68.01
2019-02-12T02:46:22.713Z,67.39
2019-02-12T02:48:49.278Z,66.80
2019-02-12T02:51:15.635Z,67.14
2019-02-12T02:53:41.957Z,67.38
2019-02-12T02:56:08.607Z,67.52
2019-02-12T02:58:34.922Z,67.09
2019-02-12T03:01:01.228Z,68.04
2019-02-12T03:03:27.784Z,67.31
2019-02-12T03:05:54.378Z,68.29
2019-02-12T03:08:20.712Z,69.55
2019-02-12T03:10:47.046Z,70.54
2019-02-12T03:13:13.370Z,70.42
2019-02-12T03:15:39.693Z,70.08
2019-02-12T03:18:06.338Z,70.70
2019-02-12T03:20:32.939Z,69.35
2019-02-12T03:22:59.586Z,70.37
2019-02-12T03:25:25.937Z,71.02
2019-02-12T03:27:52.252Z,71.81
2019-02-12T03:30:18.595Z,72.50
2019-02-12T03:32:45.191Z,73.22
2019-02-12T03:35:11.612Z,72.98
2019-02-12T03:37:38.961Z,72.56
2019-02-12T03:40:09.241Z,72.25
2019-02-12T03:42:35.887Z,72.08
2019-02-12T03:45:05.582Z,71.75
2019-02-12T03:47:32.239Z,70.73
2019-02-12T03:49:58.812Z,70.69
2019-02-12T03:52:25.205Z,70.43
2019-02-12T03:54:51.775Z,69.65
2019-02-12T03:57:18.245Z,69.55
2019-02-12T03:59:44.569Z,69.76
2019-02-12T04:02:10.928Z,70.36
2019-02-12T04:04:37.246Z,73.35
2019-02-12T04:07:03.867Z,73.88
2019-02-12T04:09:30.479Z,73.92
2019-02-12T04:11:56.774Z,74.32
2019-02-12T04:14:23.109Z,74.71
2019-02-12T04:16:49.434Z,73.90
2019-02-12T04:19:15.871Z,74.31
2019-02-12T04:21:42.237Z,75.20
2019-02-12T04:24:08.566Z,76.13
2019-02-12T04:26:34.864Z,77.27
2019-02-12T04:29:01.291Z,77.36
2019-02-12T04:31:27.708Z,77.87
2019-02-12T04:33:54.038Z,78.51
2019-02-12T04:36:20.353Z,79.42
2019-02-12T04:38:46.665Z,79.13
2019-02-12T04:41:12.986Z,78.30
2019-02-12T04:43:39.335Z,78.37
2019-02-12T04:46:05.659Z,79.05
2019-02-12T04:48:32.296Z,77.64
2019-02-12T04:50:58.922Z,77.15
2019-02-12T04:53:25.557Z,75.46
2019-02-12T04:55:51.957Z,73.89
2019-02-12T04:58:18.292Z,73.40
2019-02-12T05:00:44.659Z,72.44
2019-02-12T05:03:11.006Z,71.82
2019-02-12T05:05:37.617Z,71.36
2019-02-12T05:08:04.215Z,70.17
2019-02-12T05:10:39.427Z,69.95
2019-02-12T05:13:05.826Z,69.03
2019-02-12T05:15:32.169Z,68.62
2019-02-12T05:17:58.523Z,67.72
2019-02-12T05:20:24.862Z,67.67
2019-02-12T05:22:51.485Z,67.48
2019-02-12T05:25:17.873Z,67.27
2019-02-12T05:27:44.358Z,67.19
2019-02-12T05:30:12.790Z,66.86
2019-02-12T05:32:39.125Z,67.70
2019-02-12T05:35:05.933Z,67.31
2019-02-12T05:37:32.540Z,66.82
2019-02-12T05:39:59.961Z,67.16
2019-02-12T05:42:26.572Z,66.03
2019-02-12T05:44:52.928Z,66.50
2019-02-12T05:47:19.272Z,66.09
2019-02-12T05:49:45.620Z,66.58
2019-02-12T05:52:11.944Z,66.03
2019-02-12T05:54:38.302Z,65.96
2019-02-12T05:57:04.885Z,65.98
2019-02-12T05:59:31.282Z,65.75
2019-02-12T06:01:57.642Z,65.68
2019-02-12T06:04:23.987Z,66.90
2019-02-12T06:06:50.376Z,67.32
2019-02-12T06:09:17.069Z,67.65
2019-02-12T06:11:43.534Z,68.13
2019-02-12T06:14:09.900Z,67.21
2019-02-12T06:16:36.237Z,67.25
2019-02-12T06:19:02.605Z,66.47
2019-02-12T06:21:28.908Z,66.79
2019-02-12T06:23:55.298Z,66.61
2019-02-12T06:26:22.595Z,66.84
2019-02-12T06:28:48.953Z,66.86
2019-02-12T06:31:15.300Z,66.27
2019-02-12T06:33:41.925Z,66.02
2019-02-12T06:36:08.241Z,65.33
2019-02-12T06:38:34.879Z,65.07
2019-02-12T06:41:01.532Z,64.96
2019-02-12T06:43:27.904Z,65.06
2019-02-12T06:45:54.250Z,64.03
2019-02-12T06:48:20.572Z,63.83
2019-02-12T06:50:47.143Z,63.36
2019-02-12T06:53:13.717Z,63.06
2019-02-12T06:55:40.274Z,62.90
2019-02-12T06:58:06.870Z,62.96
2019-02-12T07:00:33.208Z,63.02
2019-02-12T07:03:14.716Z,63.27
2019-02-12T07:06:04.608Z,63.06
2019-02-12T07:08:59.970Z,63.60
2019-02-12T07:11:41.318Z,63.53
2019-02-12T07:14:13.414Z,62.89
2019-02-12T07:17:12.249Z,63.06
2019-02-12T07:20:02.112Z,63.60
2019-02-12T07:22:56.363Z,63.00
2019-02-12T07:25:49.391Z,62.92
2019-02-12T07:28:59.867Z,63.33
2019-02-12T07:31:44.191Z,63.55
2019-02-12T07:34:38.909Z,64.98
2019-02-12T07:37:13.987Z,64.14
2019-02-12T07:40:21.316Z,64.69
2019-02-12T07:43:02.405Z,64.58
2019-02-12T07:45:37.202Z,65.17
2019-02-12T07:48:36.746Z,65.13
2019-02-12T07:51:34.587Z,65.86
2019-02-12T07:54:12.291Z,65.94
2019-02-12T07:56:59.744Z,65.27
2019-02-12T07:59:46.677Z,65.63
2019-02-12T08:02:30.795Z,65.78
2019-02-12T08:05:27.257Z,65.61
2019-02-12T08:08:31.371Z,65.40
2019-02-12T08:11:06.165Z,66.12
2019-02-12T08:14:15.830Z,65.84
2019-02-12T08:17:05.740Z,65.74
2019-02-12T08:19:55.066Z,66.88
2019-02-12T08:22:32.373Z,66.30
2019-02-12T08:25:34.391Z,66.99
2019-02-12T08:28:24.390Z,67.21
2019-02-12T08:31:05.019Z,66.75
2019-02-12T08:33:37.033Z,66.28
2019-02-12T08:36:20.225Z,66.74
2019-02-12T08:39:04.050Z,65.74
2019-02-12T08:41:40.178Z,64.55
2019-02-12T08:44:38.660Z,65.04
2019-02-12T08:47:37.216Z,66.25
2019-02-12T08:50:20.087Z,66.72
2019-02-12T08:53:32.989Z,66.61
2019-02-12T08:56:33.465Z,66.94
2019-02-12T08:59:13.898Z,67.00
2019-02-12T09:01:48.688Z,66.04
2019-02-12T09:04:38.832Z,67.06
2019-02-12T09:07:28.813Z,68.35
2019-02-12T09:10:25.296Z,68.35
2019-02-12T09:13:00.614Z,67.78
2019-02-12T09:15:44.552Z,67.23
2019-02-12T09:18:36.039Z,67.42
2019-02-12T09:21:13.959Z,67.89
2019-02-12T09:24:10.221Z,67.38
2019-02-12T09:26:44.830Z,66.75
2019-02-12T09:29:37.397Z,66.45
2019-02-12T09:32:38.074Z,66.72
2019-02-12T09:35:36.965Z,67.77
2019-02-12T09:38:43.545Z,67.08
2019-02-12T09:41:31.409Z,66.24
2019-02-12T09:44:18.313Z,66.75
2019-02-12T09:47:41.098Z,65.70
2019-02-12T09:50:35.575Z,64.62
2019-02-12T09:53:35.090Z,64.03
2019-02-12T09:56:26.412Z,63.37
2019-02-12T09:59:24.258Z,65.86
2019-02-12T10:02:23.504Z,64.63
2019-02-12T10:05:31.300Z,64.66
2019-02-12T10:08:34.311Z,65.75
2019-02-12T10:11:30.099Z,65.28
2019-02-12T10:14:20.427Z,63.52
2019-02-12T10:17:14.099Z,63.03
2019-02-12T10:19:46.137Z,63.25
2019-02-12T10:22:39.132Z,61.81
2019-02-12T10:25:14.151Z,61.16
2019-02-12T10:28:08.628Z,62.72
2019-02-12T10:30:49.266Z,64.12
2019-02-12T10:33:16.065Z,64.37
2019-02-12T10:35:42.438Z,61.96
2019-02-12T10:38:08.770Z,63.24
2019-02-12T10:40:35.115Z,62.78
2019-02-12T10:43:01.726Z,64.02
2019-02-12T10:45:28.311Z,63.24
2019-02-12T10:47:54.824Z,63.03
2019-02-12T10:50:21.454Z,61.86
2019-02-12T10:52:48.036Z,63.68
2019-02-12T10:55:14.488Z,63.84
2019-02-12T10:57:41.085Z,65.32
2019-02-12T11:00:13.900Z,65.17
2019-02-12T11:02:40.441Z,64.42
2019-02-12T11:05:07.178Z,63.97
2019-02-12T11:07:33.773Z,64.52
2019-02-12T11:10:00.120Z,62.31
2019-02-12T11:12:26.532Z,61.08
2019-02-12T11:14:52.844Z,60.50
2019-02-12T11:17:19.440Z,62.71
2019-02-12T11:19:46.023Z,61.46
2019-02-12T11:22:12.330Z,61.04
2019-02-12T11:24:39.823Z,60.22
2019-02-12T11:27:06.357Z,60.49
2019-02-12T11:29:32.985Z,59.94
2019-02-12T11:31:59.544Z,58.88
2019-02-12T11:34:26.167Z,57.82
2019-02-12T11:36:52.535Z,57.13
2019-02-12T11:39:18.932Z,57.19
2019-02-12T11:41:45.221Z,56.73
2019-02-12T11:44:11.541Z,57.41
2019-02-12T11:46:38.172Z,59.24
2019-02-12T11:49:04.503Z,59.19
2019-02-12T11:51:31.100Z,59.82
2019-02-12T11:53:57.417Z,60.99
2019-02-12T11:56:23.925Z,62.31
2019-02-12T11:58:50.503Z,65.55
2019-02-12T12:01:18.131Z,66.76
2019-02-12T12:03:44.741Z,67.56
2019-02-12T12:06:11.310Z,67.77
2019-02-12T12:08:37.664Z,67.45
2019-02-12T12:11:04.238Z,67.07
2019-02-12T12:13:31.846Z,65.53
2019-02-12T12:15:58.550Z,64.75
2019-02-12T12:18:26.150Z,64.32
2019-02-12T12:20:52.717Z,63.29
2019-02-12T12:23:19.014Z,64.02
2019-02-12T12:25:45.625Z,63.07
2019-02-12T12:28:11.988Z,63.53
2019-02-12T12:30:39.418Z,63.87
2019-02-12T12:33:05.938Z,64.20
2019-02-12T12:35:32.330Z,63.95
2019-02-12T12:37:58.927Z,62.84
2019-02-12T12:40:25.321Z,62.92
2019-02-12T12:42:51.640Z,62.48
2019-02-12T12:45:18.242Z,61.38
2019-02-12T12:47:44.603Z,62.17
2019-02-12T12:50:12.100Z,63.33
2019-02-12T12:52:38.495Z,63.31
2019-02-12T12:55:07.379Z,62.19
2019-02-12T12:57:41.359Z,60.82
2019-02-12T13:00:06.476Z,59.45
2019-02-12T13:02:34.623Z,59.75
2019-02-12T13:05:02.688Z,59.82
2019-02-12T13:07:29.258Z,60.61
2019-02-12T13:09:55.861Z,62.91
2019-02-12T13:12:22.433Z,63.83
2019-02-12T13:14:49.072Z,63.77
2019-02-12T13:17:15.450Z,65.25
2019-02-12T13:19:41.773Z,67.34
2019-02-12T13:22:08.406Z,66.84
2019-02-12T13:24:34.997Z,67.55
2019-02-12T13:27:01.370Z,67.64
2019-02-12T13:29:27.691Z,66.47
2019-02-12T13:31:54.283Z,66.08
2019-02-12T13:34:20.632Z,63.74
2019-02-12T13:36:47.146Z,63.22
2019-02-12T13:39:13.473Z,62.62
2019-02-12T13:41:40.090Z,62.61
2019-02-12T13:44:06.676Z,63.29
2019-02-12T13:46:33.032Z,63.88
2019-02-12T13:48:59.417Z,62.18
2019-02-12T13:51:25.799Z,62.46
2019-02-12T13:53:52.208Z,61.83
2019-02-12T13:56:18.660Z,61.73
2019-02-12T13:58:45.338Z,60.92
2019-02-12T14:01:11.719Z,60.88
2019-02-12T14:03:38.249Z,59.23
2019-02-12T14:06:04.628Z,58.47
2019-02-12T14:08:31.296Z,57.53
2019-02-12T14:10:57.607Z,57.53
2019-02-12T14:13:24.253Z,56.88
2019-02-12T14:15:50.876Z,56.31
2019-02-12T14:18:17.518Z,56.26
2019-02-12T14:20:44.078Z,55.98
2019-02-12T14:23:10.680Z,55.09
2019-02-12T14:25:37.315Z,55.37
2019-02-12T14:28:04.009Z,55.75
2019-02-12T14:30:30.366Z,55.32
2019-02-12T14:32:57.032Z,56.11
2019-02-12T14:35:23.371Z,56.60
2019-02-12T14:37:49.969Z,55.89
2019-02-12T14:40:16.573Z,56.50
2019-02-12T14:42:43.201Z,55.87
2019-02-12T14:45:17.225Z,55.45
2019-02-12T14:47:43.874Z,54.25
2019-02-12T14:50:19.222Z,54.19
2019-02-12T14:52:45.989Z,54.57
2019-02-12T14:55:12.707Z,54.98
2019-02-12T14:57:39.064Z,53.86
2019-02-12T15:00:12.505Z,53.68
2019-02-12T15:02:39.070Z,54.67
2019-02-12T15:05:06.530Z,55.94
2019-02-12T15:07:32.853Z,56.18
2019-02-12T15:09:59.464Z,55.99
2019-02-12T15:12:25.778Z,55.11
2019-02-12T15:14:52.127Z,54.06
2019-02-12T15:17:18.469Z,52.93
2019-02-12T15:19:45.094Z,54.35
2019-02-12T15:22:11.438Z,58.79
2019-02-12T15:24:38.030Z,60.09
2019-02-12T15:27:04.564Z,61.45
2019-02-12T15:29:31.023Z,63.12
2019-02-12T15:31:57.405Z,65.19
2019-02-12T15:34:24.108Z,66.03
2019-02-12T15:36:50.484Z,67.08
2019-02-12T15:39:17.068Z,68.50
2019-02-12T15:41:43.413Z,68.58
2019-02-12T15:44:09.783Z,68.54
2019-02-12T15:46:36.372Z,69.04
2019-02-12T15:49:03.052Z,69.28
2019-02-12T15:51:29.414Z,69.05
2019-02-12T15:53:55.756Z,68.72
2019-02-12T15:56:22.349Z,67.88
2019-02-12T15:58:49.681Z,68.11
2019-02-12T16:01:16.528Z,68.11
2019-02-12T16:03:43.166Z,67.76
2019-02-12T16:06:09.491Z,67.69
2019-02-12T16:08:35.850Z,66.86
2019-02-12T16:11:02.182Z,66.67
2019-02-12T16:13:29.587Z,66.88
2019-02-12T16:15:56.176Z,66.98
2019-02-12T16:18:23.003Z,66.65
2019-02-12T16:20:50.876Z,66.70
2019-02-12T16:23:17.382Z,66.43
2019-02-12T16:25:44.036Z,66.05
2019-02-12T16:28:10.619Z,66.13
2019-02-12T16:30:37.233Z,65.79
2019-02-12T16:33:03.819Z,65.84
2019-02-12T16:35:30.433Z,66.18
2019-02-12T16:37:56.769Z,66.87
2019-02-12T16:40:23.449Z,66.67
2019-02-12T16:42:50.112Z,66.33
2019-02-12T16:45:28.294Z,66.79
2019-02-12T16:47:54.640Z,66.37
2019-02-12T16:50:21.231Z,66.43
2019-02-12T16:52:47.825Z,66.41
2019-02-12T16:55:14.554Z,66.46
2019-02-12T16:57:41.183Z,66.00
2019-02-12T17:00:14.183Z,66.42
2019-02-12T17:02:40.757Z,66.91
2019-02-12T17:05:10.433Z,67.02
2019-02-12T17:07:36.892Z,66.67
2019-02-12T17:10:07.617Z,67.21
2019-02-12T17:12:34.015Z,67.10
2019-02-12T17:15:00.686Z,67.85
2019-02-12T17:17:27.356Z,67.94
2019-02-12T17:19:53.975Z,67.18
2019-02-12T17:22:20.450Z,67.40
2019-02-12T17:24:47.022Z,67.54
2019-02-12T17:27:13.720Z,66.94
2019-02-12T17:29:40.440Z,67.11
2019-02-12T17:32:07.107Z,67.04
2019-02-12T17:34:34.823Z,66.66
2019-02-12T17:37:01.183Z,66.81
2019-02-12T17:39:27.534Z,66.25
2019-02-12T17:41:53.901Z,66.34
2019-02-12T17:44:20.484Z,65.50
2019-02-12T17:46:47.158Z,66.23
2019-02-12T17:49:13.808Z,66.41
2019-02-12T17:51:40.543Z,66.01
2019-02-12T17:54:06.912Z,65.69
2019-02-12T17:56:33.576Z,65.47
2019-02-12T17:59:00.221Z,65.57
2019-02-12T18:01:26.850Z,64.94
2019-02-12T18:03:53.506Z,65.04
2019-02-12T18:06:19.875Z,65.00
2019-02-12T18:08:46.528Z,65.51
2019-02-12T18:11:12.987Z,65.44
2019-02-12T18:13:40.411Z,66.27
2019-02-12T18:16:06.883Z,65.56
2019-02-12T18:18:33.226Z,65.97
2019-02-12T18:20:59.618Z,66.43
2019-02-12T18:23:25.967Z,65.64
2019-02-12T18:25:52.602Z,65.94
2019-02-12T18:28:19.164Z,64.88
2019-02-12T18:30:45.786Z,65.11
2019-02-12T18:33:12.430Z,64.97
2019-02-12T18:35:40.372Z,65.46
2019-02-12T18:38:08.392Z,65.62
2019-02-12T18:40:34.709Z,65.52
2019-02-12T18:43:01.303Z,65.34
2019-02-12T18:45:27.896Z,65.26
2019-02-12T18:47:54.484Z,65.30
2019-02-12T18:50:20.856Z,65.47
2019-02-12T18:52:47.301Z,64.83
2019-02-12T18:55:15.507Z,64.88
2019-02-12T18:57:42.528Z,64.45
2019-02-12T19:00:13.065Z,64.16
2019-02-12T19:02:40.186Z,63.66
2019-02-12T19:05:09.092Z,63.43
2019-02-12T19:07:36.043Z,64.93
2019-02-12T19:10:07.589Z,64.25
2019-02-12T19:12:34.565Z,64.62
2019-02-12T19:15:01.046Z,64.15
2019-02-12T19:17:27.631Z,64.53
2019-02-12T19:19:54.244Z,64.22
2019-02-12T19:22:20.917Z,64.06
2019-02-12T19:24:47.388Z,63.54
2019-02-12T19:27:13.718Z,63.76
2019-02-12T19:29:40.129Z,63.36
2019-02-12T19:32:06.467Z,63.68
2019-02-12T19:34:32.852Z,64.08
2019-02-12T19:36:59.213Z,63.39
2019-02-12T19:39:25.681Z,63.39
2019-02-12T19:41:52.392Z,62.67
2019-02-12T19:44:19.022Z,62.81
2019-02-12T19:46:45.471Z,63.01
2019-02-12T19:49:12.042Z,62.57
2019-02-12T19:51:38.387Z,62.89
2019-02-12T19:54:04.884Z,62.98
2019-02-12T19:56:31.571Z,62.68
2019-02-12T19:58:58.015Z,62.25
2019-02-12T20:01:24.475Z,62.25
2019-02-12T20:03:51.156Z,62.88
2019-02-12T20:06:17.814Z,63.59
2019-02-12T20:08:44.208Z,63.51
2019-02-12T20:11:10.612Z,63.09
2019-02-12T20:13:37.281Z,63.10
2019-02-12T20:16:03.748Z,62.58
2019-02-12T20:18:31.407Z,62.79
2019-02-12T20:20:57.832Z,62.58
2019-02-12T20:23:24.701Z,62.86
2019-02-12T20:25:52.166Z,63.01
2019-02-12T20:28:18.954Z,62.59
2019-02-12T20:30:45.708Z,62.53
2019-02-12T20:33:12.121Z,62.42
2019-02-12T20:35:38.726Z,62.89
2019-02-12T20:38:05.149Z,62.37
2019-02-12T20:40:31.881Z,63.05
2019-02-12T20:42:58.344Z,63.21
2019-02-12T20:45:24.728Z,64.05
2019-02-12T20:47:51.270Z,64.00
2019-02-12T20:50:19.910Z,63.71
2019-02-12T20:52:46.590Z,63.97
2019-02-12T20:55:13.032Z,63.34
2019-02-12T20:57:39.378Z,64.12
2019-02-12T21:00:12.578Z,63.54
2019-02-12T21:02:39.009Z,63.38
2019-02-12T21:05:09.417Z,64.15
2019-02-12T21:07:36.064Z,64.03
2019-02-12T21:10:08.711Z,64.08
2019-02-12T21:12:35.412Z,64.27
2019-02-12T21:15:04.821Z,64.28
2019-02-12T21:17:31.554Z,64.13
2019-02-12T21:19:58.957Z,63.60
2019-02-12T21:22:25.812Z,63.94
2019-02-12T21:24:52.607Z,64.08
2019-02-12T21:27:23.593Z,64.71
2019-02-12T21:29:47.987Z,64.50
2019-02-12T21:32:14.640Z,64.75
2019-02-12T21:34:41.480Z,64.91
2019-02-12T21:37:07.779Z,65.11
2019-02-12T21:39:35.016Z,64.58
2019-02-12T21:42:01.325Z,64.82
2019-02-12T21:44:30.773Z,65.27
2019-02-12T21:46:57.991Z,65.15
2019-02-12T21:49:24.582Z,65.69
2019-02-12T21:51:51.161Z,65.83
2019-02-12T21:54:18.268Z,65.73
2019-02-12T21:56:46.555Z,65.62
2019-02-12T21:59:12.962Z,65.46
2019-02-12T22:01:39.838Z,65.82
2019-02-12T22:04:06.481Z,66.23
2019-02-12T22:06:33.150Z,66.09
2019-02-12T22:08:59.785Z,66.35
2019-02-12T22:11:29.835Z,66.29
2019-02-12T22:13:56.445Z,66.54
2019-02-12T22:16:23.904Z,66.87
2019-02-12T22:18:50.238Z,66.47
2019-02-12T22:21:17.049Z,66.29
2019-02-12T22:23:43.377Z,66.65
2019-02-12T22:26:09.765Z,66.00
2019-02-12T22:28:36.063Z,65.95
2019-02-12T22:31:02.663Z,65.81
2019-02-12T22:33:29.047Z,66.02
2019-02-12T22:35:55.618Z,66.39
2019-02-12T22:38:21.911Z,65.91
2019-02-12T22:40:48.221Z,65.57
2019-02-12T22:43:14.797Z,65.83
2019-02-12T22:45:41.162Z,65.83
2019-02-12T22:48:07.467Z,66.15
2019-02-12T22:50:34.037Z,65.98
2019-02-12T22:53:00.344Z,65.77
2019-02-12T22:55:26.921Z,65.38
2019-02-12T22:57:53.320Z,65.05
2019-02-12T23:00:27.298Z,66.11
2019-02-12T23:02:55.605Z,66.22
2019-02-12T23:05:22.278Z,65.94
2019-02-12T23:07:48.735Z,65.71
2019-02-12T23:10:15.382Z,65.33
2019-02-12T23:12:41.934Z,65.19
2019-02-12T23:15:08.354Z,65.79
2019-02-12T23:17:34.655Z,65.84
2019-02-12T23:20:01.284Z,65.89
2019-02-12T23:22:29.089Z,65.55
2019-02-12T23:24:55.668Z,66.08
2019-02-12T23:27:22.239Z,66.14
2019-02-12T23:29:48.804Z,66.61
2019-02-12T23:32:15.405Z,66.56
2019-02-12T23:34:42.291Z,66.95
2019-02-12T23:37:08.873Z,66.16
2019-02-12T23:39:35.456Z,66.37
2019-02-12T23:42:01.820Z,66.14
2019-02-12T23:44:28.154Z,66.50
2019-02-12T23:46:54.710Z,66.55
2019-02-12T23:49:21.269Z,66.53
2019-02-12T23:51:47.592Z,67.36
2019-02-12T23:54:14.176Z,67.88
2019-02-12T23:56:40.518Z,67.94
2019-02-12T23:59:07.182Z,68.36
